Time;durP1;ratioP1;P1;durP2;ratioP2;P2;SDS_P1;SDS_P2;PMS_P1;PMS_P2;Temp;Humidity;BMP_temperature;BMP_pressure;BME280_temperature;BME280_humidity;BME280_pressure;Samples;Min_cycle;Max_cycle;Signal;HPM_P1;HPM_P2
2022/11/20 00:01:15;;;;;;;0.97;0.97;;;9.30;99.90;;;;;;5005217;28;20707;-62
2022/11/20 00:03:43;;;;;;;0.90;0.90;;;9.40;99.90;;;;;;5008458;28;20224;-62
2022/11/20 00:06:13;;;;;;;0.90;0.90;;;9.40;99.90;;;;;;5008710;28;20232;-63
2022/11/20 00:08:40;;;;;;;1.00;1.00;;;9.40;99.90;;;;;;5007859;28;20210;-64
2022/11/20 00:11:08;;;;;;;1.10;1.10;;;9.40;99.90;;;;;;5009953;28;20197;-64
2022/11/20 00:13:35;;;;;;;0.90;0.90;;;9.40;99.90;;;;;;5009045;28;20208;-63
2022/11/20 00:16:04;;;;;;;0.70;0.70;;;9.30;99.90;;;;;;5008334;28;20232;-63
2022/11/20 00:18:32;;;;;;;0.67;0.67;;;9.30;99.90;;;;;;5003782;28;20292;-62
2022/11/20 00:21:02;;;;;;;0.97;0.97;;;9.30;99.90;;;;;;5004132;28;20740;-64
2022/11/20 00:23:31;;;;;;;0.80;0.80;;;9.30;99.90;;;;;;5003017;28;20232;-64
2022/11/20 00:26:01;;;;;;;0.90;0.90;;;9.40;99.90;;;;;;5001146;28;20225;-64
2022/11/20 00:28:28;;;;;;;1.17;0.90;;;9.30;99.90;;;;;;5002625;28;20568;-63
2022/11/20 00:31:02;;;;;;;0.80;0.80;;;9.30;99.90;;;;;;5001920;28;20289;-64
2022/11/20 00:33:29;;;;;;;0.80;0.80;;;9.40;99.90;;;;;;5002133;28;20289;-61
2022/11/20 00:36:00;;;;;;;0.80;0.80;;;9.30;99.90;;;;;;5004116;28;20221;-64
2022/11/20 00:38:27;;;;;;;0.80;0.80;;;9.30;99.90;;;;;;5001636;28;20231;-64
2022/11/20 00:40:58;;;;;;;0.90;0.90;;;9.30;99.90;;;;;;5002194;28;20225;-62
2022/11/20 00:43:25;;;;;;;1.10;1.00;;;9.30;99.90;;;;;;5002121;28;20263;-62
2022/11/20 00:45:52;;;;;;;0.80;0.80;;;9.30;99.90;;;;;;5007492;28;20233;-62
2022/11/20 00:48:18;;;;;;;0.80;0.80;;;9.30;99.90;;;;;;5004397;28;20209;-62
2022/11/20 00:50:45;;;;;;;1.07;1.07;;;9.20;99.90;;;;;;5000896;28;20278;-64
2022/11/20 00:53:12;;;;;;;1.00;1.00;;;9.20;99.90;;;;;;5005467;28;20205;-64
2022/11/20 00:55:39;;;;;;;0.70;0.70;;;9.20;99.90;;;;;;4999969;28;20237;-63
2022/11/20 00:58:07;;;;;;;0.80;0.80;;;9.30;99.90;;;;;;5002871;28;20198;-63
2022/11/20 01:00:35;;;;;;;0.80;0.80;;;9.20;99.90;;;;;;5003728;28;20700;-64
2022/11/20 01:03:01;;;;;;;0.70;0.70;;;9.20;99.90;;;;;;5004463;28;20209;-64
2022/11/20 01:05:28;;;;;;;0.80;0.80;;;9.20;99.90;;;;;;5004025;28;20606;-64
2022/11/20 01:07:55;;;;;;;0.80;0.80;;;9.20;99.90;;;;;;5003347;28;20586;-64
2022/11/20 01:10:22;;;;;;;0.70;0.70;;;9.30;99.90;;;;;;5004966;28;20243;-63
2022/11/20 01:13:36;;;;;;;0.60;0.60;;;9.40;99.90;;;;;;5005351;28;20194;-63
2022/11/20 01:15:37;;;;;;;1.00;0.73;;;9.30;99.90;;;;;;5005914;28;20229;-63
2022/11/20 01:18:05;;;;;;;0.70;0.70;;;9.30;99.90;;;;;;5007957;28;20205;-62
2022/11/20 01:20:35;;;;;;;0.80;0.80;;;9.30;99.90;;;;;;5007846;28;20325;-63
2022/11/20 01:23:02;;;;;;;0.70;0.70;;;9.30;99.90;;;;;;5006245;28;20583;-62
2022/11/20 01:25:29;;;;;;;0.70;0.70;;;9.30;99.90;;;;;;5009744;28;20239;-64
2022/11/20 01:27:56;;;;;;;0.90;0.90;;;9.20;99.90;;;;;;5010155;28;20201;-66
2022/11/20 01:30:23;;;;;;;0.80;0.80;;;9.20;99.90;;;;;;5011678;28;20213;-65
2022/11/20 01:32:51;;;;;;;0.70;0.70;;;9.20;99.90;;;;;;5010403;28;20213;-64
2022/11/20 01:35:17;;;;;;;1.00;1.00;;;9.20;99.90;;;;;;5011404;28;20231;-63
2022/11/20 01:37:44;;;;;;;0.90;0.90;;;9.20;99.90;;;;;;5011845;28;20573;-63
2022/11/20 01:40:12;;;;;;;0.70;0.70;;;9.30;99.90;;;;;;5011801;28;20228;-63
2022/11/20 01:45:59;;;;;;;1.00;0.90;;;9.10;99.90;;;;;;5010450;28;20310;-64
2022/11/20 01:48:32;;;;;;;0.80;0.80;;;9.10;99.90;;;;;;4942800;29;20210;-62
2022/11/20 01:51:00;;;;;;;0.83;0.83;;;9.10;99.90;;;;;;4937441;29;20279;-63
2022/11/20 01:53:33;;;;;;;0.80;0.80;;;9.10;99.90;;;;;;4943916;29;20585;-63
2022/11/20 01:56:02;;;;;;;0.90;0.90;;;9.10;99.90;;;;;;4940737;29;20243;-61
2022/11/20 01:58:33;;;;;;;0.90;0.90;;;9.10;99.90;;;;;;4936169;29;20203;-64
2022/11/20 02:01:00;;;;;;;0.77;0.77;;;9.10;99.90;;;;;;4942357;29;20321;-64
2022/11/20 02:03:29;;;;;;;0.70;0.70;;;9.10;99.90;;;;;;4944520;29;20678;-61
2022/11/20 02:06:02;;;;;;;0.70;0.70;;;9.00;99.90;;;;;;4934977;29;20228;-63
2022/11/20 02:08:30;;;;;;;0.90;0.90;;;9.00;99.90;;;;;;4942541;29;20859;-62
2022/11/20 02:10:57;;;;;;;0.87;0.87;;;9.00;99.90;;;;;;4935009;29;20210;-63
2022/11/20 02:16:12;;;;;;;0.93;0.93;;;9.00;99.90;;;;;;4941354;29;20231;-64
2022/11/20 02:18:42;;;;;;;0.70;0.70;;;9.00;99.90;;;;;;4956169;28;20202;-62
2022/11/20 02:21:22;;;;;;;0.80;0.80;;;9.10;99.90;;;;;;5009695;28;20222;-62
2022/11/20 02:24:08;;;;;;;0.80;0.80;;;9.20;99.90;;;;;;5011681;28;20205;-62
2022/11/20 02:26:40;;;;;;;0.70;0.70;;;9.10;99.90;;;;;;5008708;28;20212;-63
2022/11/20 02:29:07;;;;;;;0.80;0.80;;;9.10;99.90;;;;;;5013217;28;20193;-62
2022/11/20 02:31:43;;;;;;;0.73;0.73;;;9.20;99.90;;;;;;5012163;28;20194;-61
2022/11/20 02:34:10;;;;;;;0.80;0.80;;;9.20;99.90;;;;;;5011851;28;20259;-63
2022/11/20 02:36:39;;;;;;;0.80;0.80;;;9.10;99.90;;;;;;5009603;28;20233;-62
2022/11/20 02:39:07;;;;;;;0.80;0.80;;;9.10;99.90;;;;;;5010579;28;20233;-62
2022/11/20 02:41:35;;;;;;;0.90;0.90;;;9.00;99.90;;;;;;5010480;28;20217;-62
2022/11/20 02:44:03;;;;;;;0.67;0.67;;;9.00;99.90;;;;;;5010142;28;20210;-63
2022/11/20 02:46:31;;;;;;;0.60;0.60;;;9.00;99.90;;;;;;5010315;28;20292;-64
2022/11/20 02:48:58;;;;;;;0.70;0.70;;;8.90;99.90;;;;;;5007354;28;20280;-61
2022/11/20 02:51:25;;;;;;;0.73;0.73;;;9.00;99.90;;;;;;5010191;28;20216;-63
2022/11/20 02:53:51;;;;;;;0.83;0.70;;;9.00;99.90;;;;;;5010761;28;20228;-63
2022/11/20 02:56:20;;;;;;;1.13;0.70;;;9.00;99.90;;;;;;5010653;28;20288;-63
2022/11/20 02:58:47;;;;;;;0.80;0.80;;;8.80;99.90;;;;;;5009936;28;20212;-63
2022/11/20 03:01:14;;;;;;;0.80;0.80;;;9.00;99.90;;;;;;5009269;28;20233;-62
2022/11/20 03:03:40;;;;;;;0.70;0.70;;;9.00;99.90;;;;;;5009496;28;20268;-62
2022/11/20 03:06:08;;;;;;;0.77;0.77;;;9.00;99.90;;;;;;5008733;28;20226;-64
2022/11/20 03:08:35;;;;;;;1.47;0.90;;;9.00;99.90;;;;;;5009799;28;20216;-63
2022/11/20 03:11:07;;;;;;;0.80;0.80;;;9.10;99.90;;;;;;5009087;28;20215;-63
2022/11/20 03:13:36;;;;;;;0.70;0.70;;;9.10;99.90;;;;;;5009859;28;20301;-62
2022/11/20 03:16:07;;;;;;;0.70;0.70;;;9.10;99.90;;;;;;5009146;28;20239;-62
2022/11/20 03:18:34;;;;;;;0.70;0.70;;;9.10;99.90;;;;;;5010169;28;20197;-62
2022/11/20 03:21:01;;;;;;;0.63;0.63;;;9.20;99.90;;;;;;5007170;28;20319;-63
2022/11/20 03:23:31;;;;;;;0.77;0.70;;;9.20;99.90;;;;;;5010222;28;20197;-63
2022/11/20 03:26:08;;;;;;;0.77;0.77;;;9.30;99.90;;;;;;5006840;28;20228;-64
2022/11/20 03:28:36;;;;;;;0.70;0.70;;;9.30;99.90;;;;;;5010232;28;20201;-64
2022/11/20 03:31:07;;;;;;;0.70;0.70;;;9.30;99.90;;;;;;5008036;28;20203;-63
2022/11/20 03:33:34;;;;;;;0.80;0.80;;;9.40;99.90;;;;;;5004757;28;20809;-63
2022/11/20 03:36:02;;;;;;;0.87;0.77;;;9.40;99.90;;;;;;5004506;28;20218;-64
2022/11/20 03:38:30;;;;;;;0.73;0.73;;;9.40;99.90;;;;;;5009592;28;20211;-62
2022/11/20 03:40:59;;;;;;;0.60;0.60;;;9.40;99.90;;;;;;5005096;28;20225;-65
2022/11/20 03:43:26;;;;;;;0.63;0.63;;;9.40;99.90;;;;;;5009482;28;20211;-64
2022/11/20 03:45:54;;;;;;;0.60;0.60;;;9.40;99.90;;;;;;5008751;28;20587;-63
2022/11/20 03:48:21;;;;;;;0.70;0.70;;;9.50;99.90;;;;;;5009439;28;20215;-64
2022/11/20 03:50:48;;;;;;;0.70;0.70;;;9.50;99.90;;;;;;5009190;28;20201;-64
2022/11/20 03:53:15;;;;;;;0.60;0.60;;;9.50;99.90;;;;;;5008400;28;20209;-63
2022/11/20 03:55:42;;;;;;;0.70;0.70;;;9.50;99.90;;;;;;5006213;28;20890;-63
2022/11/20 03:58:09;;;;;;;0.83;0.83;;;9.40;99.90;;;;;;5009465;28;20205;-61
2022/11/20 04:00:36;;;;;;;0.70;0.70;;;9.50;99.90;;;;;;5009186;28;20235;-64
2022/11/20 04:03:05;;;;;;;0.70;0.70;;;9.40;99.90;;;;;;5007806;28;20198;-63
2022/11/20 04:05:34;;;;;;;0.70;0.70;;;9.50;99.90;;;;;;5008524;28;20329;-64
2022/11/20 04:08:01;;;;;;;0.60;0.60;;;9.50;99.90;;;;;;5008487;28;20221;-63
2022/11/20 04:10:28;;;;;;;0.50;0.50;;;9.40;99.90;;;;;;5009157;28;20204;-64
2022/11/20 04:12:55;;;;;;;0.60;0.60;;;9.40;99.90;;;;;;5006855;28;20209;-64
2022/11/20 04:15:21;;;;;;;0.70;0.70;;;9.40;99.90;;;;;;5008578;28;20324;-63
2022/11/20 04:17:48;;;;;;;0.60;0.60;;;9.40;99.90;;;;;;5009501;28;20201;-64
2022/11/20 04:20:17;;;;;;;0.70;0.70;;;9.40;99.90;;;;;;5008557;28;20300;-64
2022/11/20 04:22:44;;;;;;;0.80;0.80;;;9.40;99.90;;;;;;5007717;28;20212;-63
2022/11/20 04:25:10;;;;;;;0.67;0.67;;;9.40;99.90;;;;;;5007209;28;20283;-61
2022/11/20 04:27:37;;;;;;;0.57;0.57;;;9.40;99.90;;;;;;5009016;28;20211;-64
2022/11/20 04:30:05;;;;;;;0.60;0.60;;;9.40;99.90;;;;;;5008147;28;20674;-63
2022/11/20 04:32:32;;;;;;;0.70;0.70;;;9.40;99.90;;;;;;5008488;28;20198;-64
2022/11/20 04:34:59;;;;;;;0.80;0.80;;;9.40;99.90;;;;;;5007153;28;20221;-62
2022/11/20 04:37:27;;;;;;;0.70;0.70;;;9.40;99.90;;;;;;5009015;28;20653;-63
2022/11/20 04:39:54;;;;;;;0.60;0.60;;;9.40;99.90;;;;;;5008265;28;20609;-63
2022/11/20 04:42:29;;;;;;;0.60;0.60;;;9.40;99.90;;;;;;5008892;28;20312;-63
2022/11/20 04:44:57;;;;;;;0.70;0.70;;;9.40;99.90;;;;;;5007582;28;20239;-63
2022/11/20 04:47:24;;;;;;;0.50;0.50;;;9.40;99.90;;;;;;5011426;28;20236;-63
2022/11/20 04:49:50;;;;;;;0.50;0.50;;;9.40;99.90;;;;;;5008627;28;20288;-66
2022/11/20 04:52:17;;;;;;;0.53;0.53;;;9.40;99.90;;;;;;5009913;28;20197;-63
2022/11/20 04:54:45;;;;;;;0.50;0.50;;;9.40;99.90;;;;;;5008006;28;20267;-63
2022/11/20 04:57:15;;;;;;;0.60;0.60;;;9.40;99.90;;;;;;5008181;28;20486;-63
2022/11/20 04:59:42;;;;;;;0.63;0.63;;;9.40;99.90;;;;;;5009408;28;20209;-63
2022/11/20 05:02:09;;;;;;;0.70;0.70;;;9.40;99.90;;;;;;5012387;28;20225;-63
2022/11/20 05:04:36;;;;;;;0.67;0.67;;;9.30;99.90;;;;;;5012359;28;20229;-62
2022/11/20 05:07:02;;;;;;;0.63;0.60;;;9.30;99.90;;;;;;5011761;28;20208;-64
2022/11/20 05:09:30;;;;;;;0.50;0.50;;;9.30;99.90;;;;;;5008633;28;20645;-64
2022/11/20 05:11:58;;;;;;;0.80;0.80;;;9.30;99.90;;;;;;4997455;28;20204;-63
2022/11/20 05:14:25;;;;;;;0.50;0.50;;;9.30;99.90;;;;;;5005007;28;20228;-62
2022/11/20 05:16:52;;;;;;;0.67;0.67;;;9.30;99.90;;;;;;5012130;28;20213;-62
2022/11/20 05:19:18;;;;;;;0.60;0.60;;;9.30;99.90;;;;;;5012657;28;20211;-64
2022/11/20 05:21:45;;;;;;;0.60;0.60;;;9.30;99.90;;;;;;5011911;28;20585;-63
2022/11/20 05:24:12;;;;;;;0.73;0.73;;;9.30;99.90;;;;;;5011791;28;20319;-63
2022/11/20 05:26:39;;;;;;;0.80;0.80;;;9.30;99.90;;;;;;5011590;28;20211;-63
2022/11/20 05:29:07;;;;;;;0.70;0.70;;;9.30;99.90;;;;;;5011074;28;20207;-63
2022/11/20 05:31:34;;;;;;;0.60;0.60;;;9.40;99.90;;;;;;5012178;28;20228;-63
2022/11/20 05:34:01;;;;;;;0.80;0.80;;;9.40;99.90;;;;;;5012729;28;20201;-64
2022/11/20 05:36:27;;;;;;;0.47;0.47;;;9.40;99.90;;;;;;5009594;28;20659;-64
2022/11/20 05:38:54;;;;;;;0.60;0.60;;;9.30;99.90;;;;;;5012585;28;20209;-63
2022/11/20 05:41:21;;;;;;;0.50;0.50;;;9.40;99.90;;;;;;5012559;28;20231;-62
2022/11/20 05:43:50;;;;;;;0.50;0.50;;;9.40;99.90;;;;;;5012525;28;20663;-62
2022/11/20 05:46:19;;;;;;;0.50;0.50;;;9.30;99.90;;;;;;5011689;28;20216;-61
2022/11/20 05:48:47;;;;;;;0.67;0.67;;;9.40;99.90;;;;;;5011818;28;20212;-63
2022/11/20 05:51:17;;;;;;;0.60;0.60;;;9.30;99.90;;;;;;5011109;28;21079;-64
2022/11/20 05:53:44;;;;;;;0.60;0.60;;;9.30;99.90;;;;;;5011626;28;20243;-63
2022/11/20 05:56:13;;;;;;;0.97;0.50;;;9.30;99.90;;;;;;5010475;28;21027;-62
2022/11/20 05:58:40;;;;;;;0.50;0.50;;;9.30;99.90;;;;;;5011634;28;20209;-64
2022/11/20 06:01:10;;;;;;;0.43;0.43;;;9.30;99.90;;;;;;5010191;28;20225;-62
2022/11/20 06:03:39;;;;;;;0.53;0.53;;;9.40;99.90;;;;;;5012116;28;20562;-64
2022/11/20 06:06:07;;;;;;;0.60;0.60;;;9.40;99.90;;;;;;5010653;28;20228;-63
2022/11/20 06:08:34;;;;;;;0.70;0.70;;;9.40;99.90;;;;;;5011179;28;20201;-64
2022/11/20 06:11:05;;;;;;;0.70;0.70;;;9.40;99.90;;;;;;5009755;28;20343;-62
2022/11/20 06:13:32;;;;;;;0.50;0.50;;;9.50;99.90;;;;;;5011187;28;20289;-64
2022/11/20 06:15:58;;;;;;;0.60;0.60;;;9.50;99.90;;;;;;5010488;28;20614;-63
2022/11/20 06:18:27;;;;;;;0.50;0.50;;;9.40;99.90;;;;;;5011950;28;20584;-62
2022/11/20 06:21:02;;;;;;;0.40;0.40;;;9.50;99.90;;;;;;5009196;28;20213;-64
2022/11/20 06:23:30;;;;;;;0.63;0.63;;;9.40;99.90;;;;;;5009902;28;20205;-62
2022/11/20 06:25:57;;;;;;;0.50;0.50;;;9.40;99.90;;;;;;5007285;28;20289;-65
2022/11/20 06:28:24;;;;;;;0.60;0.60;;;9.50;99.90;;;;;;5010835;28;20197;-62
2022/11/20 06:30:50;;;;;;;0.53;0.53;;;9.50;99.90;;;;;;5010354;28;20289;-64
2022/11/20 06:33:17;;;;;;;0.40;0.40;;;9.50;99.90;;;;;;5010708;28;20292;-63
2022/11/20 06:35:44;;;;;;;0.53;0.53;;;9.50;99.90;;;;;;5010841;28;20603;-62
2022/11/20 06:38:12;;;;;;;0.87;0.87;;;9.50;99.90;;;;;;5010703;28;20209;-64
2022/11/20 06:40:41;;;;;;;0.90;0.90;;;9.50;99.90;;;;;;5009728;28;20205;-64
2022/11/20 06:43:08;;;;;;;0.77;0.70;;;9.50;99.90;;;;;;5009605;28;20217;-63
2022/11/20 06:45:35;;;;;;;0.60;0.60;;;9.40;99.90;;;;;;5010093;28;20241;-62
2022/11/20 06:48:01;;;;;;;0.63;0.63;;;9.40;99.90;;;;;;5010610;28;20298;-63
2022/11/20 06:50:28;;;;;;;0.60;0.60;;;9.30;99.90;;;;;;5010803;28;20228;-63
2022/11/20 06:52:55;;;;;;;0.60;0.60;;;9.30;99.90;;;;;;5008900;28;20685;-63
2022/11/20 06:55:23;;;;;;;0.53;0.53;;;9.40;99.90;;;;;;5010177;28;20232;-63
2022/11/20 06:57:51;;;;;;;0.40;0.40;;;9.30;99.90;;;;;;5011700;28;20210;-63
2022/11/20 07:00:18;;;;;;;0.50;0.50;;;9.40;99.90;;;;;;5010276;28;20205;-63
2022/11/20 07:02:45;;;;;;;0.70;0.70;;;9.40;99.90;;;;;;5009711;28;20233;-62
2022/11/20 07:05:12;;;;;;;0.50;0.50;;;9.40;99.90;;;;;;5012134;28;20229;-62
2022/11/20 07:07:39;;;;;;;0.50;0.50;;;9.40;99.90;;;;;;5003209;28;20214;-63
2022/11/20 07:10:07;;;;;;;0.50;0.50;;;9.40;99.90;;;;;;5011990;28;20298;-62
2022/11/20 07:12:35;;;;;;;0.70;0.70;;;9.40;99.90;;;;;;5014460;28;20288;-62
2022/11/20 07:15:02;;;;;;;0.53;0.53;;;9.30;99.90;;;;;;5003873;28;20352;-62
2022/11/20 07:17:29;;;;;;;0.60;0.60;;;9.30;99.90;;;;;;5007793;28;20197;-62
2022/11/20 07:19:56;;;;;;;0.60;0.60;;;9.20;99.90;;;;;;5010923;28;20765;-62
2022/11/20 07:22:22;;;;;;;0.80;0.80;;;9.20;99.90;;;;;;5009699;28;20226;-62
2022/11/20 07:24:49;;;;;;;0.80;0.80;;;9.20;99.90;;;;;;5009386;28;20240;-64
2022/11/20 07:27:16;;;;;;;0.70;0.70;;;9.10;99.90;;;;;;5011572;28;20212;-62
2022/11/20 07:29:44;;;;;;;0.70;0.70;;;9.10;99.90;;;;;;5014030;28;20293;-61
2022/11/20 07:32:11;;;;;;;0.80;0.80;;;9.10;99.90;;;;;;5014956;28;20321;-64
2022/11/20 07:34:38;;;;;;;0.40;0.40;;;9.10;99.90;;;;;;5014928;28;20233;-63
2022/11/20 07:37:05;;;;;;;0.50;0.50;;;9.20;99.90;;;;;;5012744;28;20226;-64
2022/11/20 07:39:32;;;;;;;0.50;0.50;;;9.20;99.90;;;;;;5010365;28;21003;-64
2022/11/20 07:41:59;;;;;;;0.60;0.60;;;9.20;99.90;;;;;;5009566;28;20217;-63
2022/11/20 07:44:25;;;;;;;0.70;0.70;;;9.20;99.90;;;;;;5001254;28;20236;-60
2022/11/20 07:46:53;;;;;;;0.80;0.80;;;9.10;99.90;;;;;;5013630;28;20213;-63
2022/11/20 07:49:20;;;;;;;0.70;0.70;;;9.20;99.90;;;;;;5015255;28;20206;-66
2022/11/20 07:51:47;;;;;;;0.60;0.60;;;9.10;99.90;;;;;;5003274;28;20208;-64
2022/11/20 07:54:14;;;;;;;0.70;0.70;;;9.10;99.90;;;;;;5011797;28;20239;-63
2022/11/20 07:56:41;;;;;;;0.67;0.67;;;9.10;99.90;;;;;;5008246;28;20213;-62
2022/11/20 07:59:08;;;;;;;0.53;0.53;;;9.10;99.90;;;;;;5013884;28;20205;-65
2022/11/20 08:01:35;;;;;;;0.70;0.70;;;9.10;99.90;;;;;;5011598;28;20233;-63
2022/11/20 08:04:03;;;;;;;0.50;0.50;;;9.10;99.90;;;;;;5007425;28;20233;-63
2022/11/20 08:06:30;;;;;;;0.33;0.33;;;9.10;99.90;;;;;;5006684;28;20202;-65
2022/11/20 08:08:57;;;;;;;0.50;0.50;;;9.00;99.90;;;;;;5008510;28;20201;-65
2022/11/20 08:14:15;;;;;;;0.63;0.63;;;9.10;99.90;;;;;;5004974;28;20322;-62
2022/11/20 08:16:43;;;;;;;0.40;0.40;;;9.00;99.90;;;;;;5008935;28;20869;-64
2022/11/20 08:19:12;;;;;;;0.50;0.50;;;9.10;99.90;;;;;;5011333;28;20230;-64
2022/11/20 08:21:40;;;;;;;0.60;0.60;;;9.00;99.90;;;;;;5010735;28;20307;-64
2022/11/20 08:24:08;;;;;;;0.50;0.50;;;9.10;99.90;;;;;;5011358;28;20312;-63
2022/11/20 08:26:35;;;;;;;0.50;0.50;;;9.10;99.90;;;;;;5011371;28;20229;-63
2022/11/20 08:29:02;;;;;;;0.53;0.50;;;9.00;99.90;;;;;;5011635;28;20273;-62
2022/11/20 08:31:29;;;;;;;0.40;0.40;;;9.10;99.90;;;;;;5012000;28;20205;-63
2022/11/20 08:33:56;;;;;;;0.60;0.60;;;9.00;99.90;;;;;;5011898;28;20202;-63
2022/11/20 08:36:25;;;;;;;0.40;0.40;;;9.00;99.90;;;;;;5010761;28;20211;-63
2022/11/20 08:38:54;;;;;;;0.50;0.50;;;9.10;99.90;;;;;;5009200;28;20672;-62
2022/11/20 08:41:27;;;;;;;0.40;0.40;;;9.00;99.90;;;;;;5008315;28;20216;-63
2022/11/20 08:43:56;;;;;;;0.70;0.70;;;9.00;99.90;;;;;;5011475;28;20827;-64
2022/11/20 08:46:24;;;;;;;0.60;0.60;;;9.00;99.90;;;;;;5009645;28;20205;-64
2022/11/20 08:48:51;;;;;;;0.60;0.60;;;9.10;99.90;;;;;;5010883;28;20256;-63
2022/11/20 08:51:19;;;;;;;0.50;0.50;;;9.10;99.90;;;;;;5002336;28;20208;-64
2022/11/20 08:53:49;;;;;;;0.63;0.57;;;9.10;99.90;;;;;;5010805;28;20213;-64
2022/11/20 08:56:16;;;;;;;0.60;0.60;;;9.10;99.90;;;;;;5009446;28;20403;-65
2022/11/20 08:58:43;;;;;;;0.70;0.70;;;9.10;99.90;;;;;;5010912;28;20710;-64
2022/11/20 09:01:10;;;;;;;0.40;0.40;;;9.10;99.90;;;;;;5004224;28;20271;-64
2022/11/20 09:03:37;;;;;;;0.80;0.80;;;9.10;99.90;;;;;;5014581;28;20386;-63
2022/11/20 09:06:06;;;;;;;0.67;0.67;;;9.10;99.90;;;;;;5013932;28;20221;-65
2022/11/20 09:08:34;;;;;;;0.60;0.60;;;9.20;99.90;;;;;;5012943;28;20285;-63
2022/11/20 09:11:03;;;;;;;0.50;0.50;;;9.20;99.90;;;;;;5013398;28;20208;-63
2022/11/20 09:13:31;;;;;;;0.47;0.47;;;9.20;99.90;;;;;;5005472;28;20206;-62
2022/11/20 09:15:59;;;;;;;0.77;0.77;;;9.30;99.90;;;;;;5004323;28;20225;-62
2022/11/20 09:18:28;;;;;;;0.70;0.70;;;9.30;99.90;;;;;;5005510;28;20579;-64
2022/11/20 09:20:57;;;;;;;0.60;0.60;;;9.30;99.90;;;;;;5006678;28;20700;-62
2022/11/20 09:23:24;;;;;;;0.50;0.50;;;9.30;99.90;;;;;;5008194;28;20205;-63
2022/11/20 09:25:52;;;;;;;0.60;0.60;;;9.40;99.90;;;;;;5010876;28;20619;-62
2022/11/20 09:28:20;;;;;;;0.70;0.70;;;9.30;99.90;;;;;;5013189;28;20655;-65
2022/11/20 09:30:47;;;;;;;0.50;0.50;;;9.30;99.90;;;;;;5010059;28;20273;-63
2022/11/20 09:33:14;;;;;;;0.67;0.67;;;9.40;99.90;;;;;;5008111;28;20540;-64
2022/11/20 09:35:43;;;;;;;0.70;0.70;;;9.50;99.90;;;;;;4999126;28;20239;-63
2022/11/20 09:38:10;;;;;;;0.60;0.60;;;9.40;99.90;;;;;;5000269;28;20595;-60
2022/11/20 09:40:41;;;;;;;0.70;0.70;;;9.50;99.90;;;;;;5004495;28;20214;-64
2022/11/20 09:43:14;;;;;;;0.60;0.60;;;9.50;99.90;;;;;;5006391;28;20236;-62
2022/11/20 09:46:06;;;;;;;0.60;0.60;;;9.40;99.90;;;;;;4990037;28;20324;-63
2022/11/20 09:48:57;;;;;;;0.80;0.80;;;9.50;99.90;;;;;;5008732;28;20574;-64
2022/11/20 09:51:37;;;;;;;0.70;0.70;;;9.40;99.90;;;;;;5006340;28;20301;-63
2022/11/20 09:54:17;;;;;;;0.60;0.60;;;9.40;99.90;;;;;;5009515;28;20344;-65
2022/11/20 09:56:46;;;;;;;0.70;0.70;;;9.40;99.90;;;;;;5010470;28;20212;-65
2022/11/20 09:59:30;;;;;;;0.77;0.77;;;9.40;99.90;;;;;;5009529;28;20213;-64
2022/11/20 10:02:01;;;;;;;0.70;0.70;;;9.40;99.90;;;;;;5008549;28;20220;-64
2022/11/20 10:04:33;;;;;;;0.70;0.70;;;9.50;99.90;;;;;;5008727;28;20217;-63
2022/11/20 10:07:06;;;;;;;0.63;0.63;;;9.60;99.90;;;;;;5013011;28;20568;-65
2022/11/20 10:09:35;;;;;;;0.80;0.80;;;9.70;99.90;;;;;;5002900;28;20216;-63
2022/11/20 10:12:13;;;;;;;0.80;0.80;;;9.60;99.90;;;;;;5008301;28;20284;-63
2022/11/20 10:14:53;;;;;;;0.70;0.70;;;9.60;99.90;;;;;;5008956;28;20229;-64
2022/11/20 10:17:34;;;;;;;0.77;0.77;;;9.60;99.90;;;;;;5004026;28;20201;-65
2022/11/20 10:20:16;;;;;;;0.67;0.67;;;9.60;99.90;;;;;;5008617;28;20192;-65
2022/11/20 10:22:57;;;;;;;0.70;0.70;;;9.60;99.90;;;;;;5009411;28;21013;-66
2022/11/20 10:25:30;;;;;;;1.13;0.73;;;9.70;99.90;;;;;;5012676;28;20227;-64
2022/11/20 10:28:21;;;;;;;0.90;0.90;;;9.70;99.90;;;;;;5013013;28;20204;-66
2022/11/20 10:30:57;;;;;;;0.60;0.60;;;9.70;99.90;;;;;;5013532;28;20300;-65
2022/11/20 10:33:27;;;;;;;0.80;0.80;;;9.70;99.90;;;;;;5014372;28;20199;-66
2022/11/20 10:36:02;;;;;;;0.90;0.90;;;9.80;99.90;;;;;;5017393;28;20221;-66
2022/11/20 10:38:36;;;;;;;0.93;0.70;;;9.80;99.90;;;;;;5012857;28;20196;-64
2022/11/20 10:43:55;;;;;;;0.50;0.50;;;9.90;99.90;;;;;;5013680;28;20946;-63
2022/11/20 10:46:23;;;;;;;0.80;0.80;;;10.00;99.90;;;;;;5013467;28;20224;-66
2022/11/20 10:48:51;;;;;;;0.70;0.70;;;10.00;99.90;;;;;;5012011;28;20811;-65
2022/11/20 10:51:29;;;;;;;0.70;0.70;;;10.10;99.90;;;;;;5009891;28;20205;-64
2022/11/20 10:54:18;;;;;;;0.80;0.80;;;10.10;99.90;;;;;;5012691;28;20201;-64
2022/11/20 10:56:49;;;;;;;0.60;0.60;;;10.10;99.90;;;;;;5011760;28;20205;-64
2022/11/20 10:59:48;;;;;;;0.70;0.70;;;10.20;99.90;;;;;;5009362;28;20211;-62
2022/11/20 11:02:20;;;;;;;0.80;0.80;;;10.20;99.90;;;;;;4942092;28;20205;-63
2022/11/20 11:04:50;;;;;;;0.90;0.90;;;10.20;99.90;;;;;;5011216;28;20243;-61
2022/11/20 11:07:21;;;;;;;0.90;0.90;;;10.20;99.90;;;;;;5014563;28;20201;-62
2022/11/20 11:09:50;;;;;;;0.73;0.73;;;10.30;99.90;;;;;;5011379;28;20217;-62
2022/11/20 11:12:17;;;;;;;0.70;0.70;;;10.50;99.90;;;;;;5011054;28;20260;-63
2022/11/20 11:14:47;;;;;;;0.63;0.63;;;10.70;99.90;;;;;;5010686;28;20269;-63
2022/11/20 11:17:27;;;;;;;0.47;0.47;;;10.90;99.90;;;;;;5011169;28;20212;-62
2022/11/20 11:20:05;;;;;;;0.70;0.70;;;11.00;99.90;;;;;;5009485;28;20216;-63
2022/11/20 11:22:34;;;;;;;0.50;0.50;;;11.00;99.90;;;;;;5008350;28;20281;-63
2022/11/20 11:25:02;;;;;;;0.80;0.80;;;10.90;99.90;;;;;;5000999;28;20236;-65
2022/11/20 11:27:29;;;;;;;0.53;0.53;;;10.80;99.90;;;;;;5011292;28;20198;-63
2022/11/20 11:30:14;;;;;;;0.70;0.70;;;10.80;99.90;;;;;;5010602;28;20556;-65
2022/11/20 11:32:41;;;;;;;0.60;0.60;;;10.70;99.90;;;;;;5005088;28;20213;-64
2022/11/20 11:35:25;;;;;;;1.17;1.17;;;10.80;99.90;;;;;;5009469;28;20305;-66
2022/11/20 11:37:54;;;;;;;1.10;1.10;;;11.00;99.90;;;;;;5008887;28;20205;-65
2022/11/20 11:40:23;;;;;;;0.70;0.70;;;11.10;99.90;;;;;;5006902;28;20296;-62
2022/11/20 11:42:57;;;;;;;0.80;0.80;;;11.20;99.90;;;;;;5007844;28;20602;-62
2022/11/20 11:45:24;;;;;;;0.60;0.60;;;11.20;99.90;;;;;;5009300;28;20703;-64
2022/11/20 11:47:52;;;;;;;0.70;0.67;;;11.30;99.90;;;;;;5010720;28;20197;-63
2022/11/20 11:50:23;;;;;;;0.83;0.77;;;11.40;99.90;;;;;;5010141;28;20205;-65
2022/11/20 11:52:59;;;;;;;1.03;0.80;;;11.40;99.90;;;;;;5008500;28;20201;-64
2022/11/20 11:55:34;;;;;;;0.80;0.80;;;11.30;99.90;;;;;;5005544;28;20312;-65
2022/11/20 11:58:12;;;;;;;0.83;0.80;;;11.20;99.90;;;;;;5008674;28;20205;-65
2022/11/20 12:00:42;;;;;;;0.70;0.70;;;11.10;99.90;;;;;;5008940;28;20259;-63
2022/11/20 12:03:16;;;;;;;0.80;0.80;;;11.00;99.90;;;;;;5008021;28;20228;-63
2022/11/20 12:05:48;;;;;;;1.03;1.03;;;11.10;99.90;;;;;;5008248;28;20327;-60
2022/11/20 12:08:21;;;;;;;1.17;1.17;;;11.20;99.90;;;;;;5008606;28;20702;-65
2022/11/20 12:10:55;;;;;;;1.10;1.10;;;11.30;99.90;;;;;;5008541;28;20232;-64
2022/11/20 12:13:40;;;;;;;1.10;1.10;;;11.30;99.90;;;;;;5005932;28;20215;-62
2022/11/20 12:16:14;;;;;;;1.20;1.20;;;11.30;99.90;;;;;;5007030;28;20225;-64
2022/11/20 12:18:42;;;;;;;1.30;1.30;;;11.20;99.90;;;;;;5008955;28;20317;-63
2022/11/20 12:21:20;;;;;;;0.80;0.80;;;11.20;99.90;;;;;;5003979;28;20208;-64
2022/11/20 12:24:01;;;;;;;0.77;0.77;;;11.20;99.90;;;;;;5007862;28;20243;-64
2022/11/20 12:26:44;;;;;;;0.63;0.63;;;11.30;99.90;;;;;;5005901;28;20202;-64
2022/11/20 12:29:21;;;;;;;0.80;0.80;;;11.30;99.90;;;;;;5007949;28;20209;-64
2022/11/20 12:32:12;;;;;;;0.73;0.73;;;11.20;99.90;;;;;;5005898;28;20223;-63
2022/11/20 12:34:53;;;;;;;0.70;0.70;;;11.20;99.90;;;;;;5007266;28;20290;-64
2022/11/20 12:37:34;;;;;;;0.60;0.60;;;11.00;99.90;;;;;;5007753;28;20291;-62
2022/11/20 12:40:10;;;;;;;1.03;1.03;;;10.90;99.90;;;;;;5008631;28;20694;-64
2022/11/20 12:46:12;;;;;;;0.73;0.50;;;11.00;99.90;;;;;;5008399;28;20363;-66
2022/11/20 12:48:49;;;;;;;0.70;0.70;;;11.10;99.90;;;;;;5007043;28;20236;-62
2022/11/20 12:51:35;;;;;;;0.70;0.70;;;11.20;99.90;;;;;;5008215;28;20205;-64
2022/11/20 12:54:34;;;;;;;0.70;0.70;;;11.10;99.90;;;;;;5006285;28;20208;-64
2022/11/20 12:57:10;;;;;;;0.60;0.60;;;11.00;99.90;;;;;;5005145;28;20251;-64
2022/11/20 13:00:01;;;;;;;0.70;0.70;;;11.10;99.90;;;;;;5008281;28;20675;-65
2022/11/20 13:02:36;;;;;;;0.53;0.53;;;11.00;99.90;;;;;;5006402;28;20284;-66
2022/11/20 13:05:23;;;;;;;0.40;0.40;;;11.00;99.90;;;;;;5009276;28;20220;-64
2022/11/20 13:07:53;;;;;;;0.57;0.57;;;11.00;99.90;;;;;;5005049;28;20205;-63
2022/11/20 13:10:32;;;;;;;0.60;0.60;;;11.00;99.90;;;;;;5009413;28;20214;-63
2022/11/20 13:13:04;;;;;;;1.27;1.20;;;11.00;99.90;;;;;;5007720;28;20683;-63
2022/11/20 13:15:40;;;;;;;0.67;0.67;;;11.00;99.90;;;;;;5007965;28;20233;-64
2022/11/20 13:18:11;;;;;;;0.70;0.70;;;11.00;99.90;;;;;;5006924;28;20215;-63
2022/11/20 13:20:43;;;;;;;0.73;0.73;;;11.10;99.90;;;;;;5008926;28;20211;-62
2022/11/20 13:23:10;;;;;;;0.67;0.67;;;11.10;99.90;;;;;;5012668;28;20233;-65
2022/11/20 13:25:40;;;;;;;0.43;0.43;;;11.20;99.90;;;;;;5011286;28;20236;-66